Time;durP1;ratioP1;P1;durP2;ratioP2;P2;SDS_P1;SDS_P2;PMS_P1;PMS_P2;Temp;Humidity;BMP_temperature;BMP_pressure;BME280_temperature;BME280_humidity;BME280_pressure;Samples;Min_cycle;Max_cycle;Signal;HPM_P1;HPM_P2
2023/09/29 00:00:35;;;;;;;6.05;0.73;;;15.70;99.90;;;;;;5076482;28;20028;-74
2023/09/29 00:03:01;;;;;;;11.02;1.23;;;15.70;99.90;;;;;;5076533;28;20460;-74
2023/09/29 00:05:27;;;;;;;9.30;1.48;;;15.80;99.90;;;;;;5075940;28;20033;-74
2023/09/29 00:07:54;;;;;;;6.95;0.93;;;15.80;99.90;;;;;;5058452;28;20031;-74
2023/09/29 00:10:23;;;;;;;7.53;1.05;;;15.90;99.90;;;;;;5058120;28;20024;-74
2023/09/29 00:12:49;;;;;;;8.57;1.77;;;15.90;99.90;;;;;;5076359;28;20021;-74
2023/09/29 00:15:17;;;;;;;5.88;1.30;;;15.80;99.90;;;;;;5075875;28;20019;-75
2023/09/29 00:17:42;;;;;;;8.70;1.45;;;15.90;99.90;;;;;;5057280;28;20115;-74
2023/09/29 00:22:43;;;;;;;6.65;1.08;;;15.90;99.90;;;;;;5075840;28;20618;-74
2023/09/29 00:25:09;;;;;;;13.85;1.35;;;15.90;99.90;;;;;;5075914;28;20052;-75
2023/09/29 00:27:35;;;;;;;8.57;1.20;;;16.00;99.90;;;;;;5057644;28;20012;-75
2023/09/29 00:30:01;;;;;;;6.43;0.93;;;16.00;99.90;;;;;;5057339;28;20450;-74
2023/09/29 00:32:26;;;;;;;7.95;1.10;;;16.00;99.90;;;;;;5057402;28;20071;-74
2023/09/29 00:34:52;;;;;;;5.53;0.65;;;16.00;99.90;;;;;;5057930;28;20028;-74
2023/09/29 00:37:17;;;;;;;5.82;0.65;;;16.00;99.90;;;;;;5057762;28;20483;-74
2023/09/29 00:39:43;;;;;;;19.90;1.38;;;16.10;99.90;;;;;;5075482;28;20021;-74
2023/09/29 00:42:09;;;;;;;3.67;0.93;;;16.10;99.90;;;;;;5075171;28;20089;-74
2023/09/29 00:44:34;;;;;;;4.97;0.77;;;16.10;99.90;;;;;;5075032;28;20472;-71
2023/09/29 00:47:01;;;;;;;4.00;0.50;;;16.10;99.90;;;;;;5075226;28;20028;-71
2023/09/29 00:49:29;;;;;;;7.88;1.02;;;16.10;99.90;;;;;;5075112;28;20024;-71
2023/09/29 00:51:59;;;;;;;11.77;0.70;;;16.20;99.90;;;;;;5075095;28;20154;-71
2023/09/29 00:54:30;;;;;;;9.65;0.73;;;16.20;99.90;;;;;;5075138;28;20391;-71
2023/09/29 00:56:58;;;;;;;11.60;1.23;;;16.20;99.90;;;;;;5075025;28;20446;-71
2023/09/29 00:59:24;;;;;;;7.25;0.90;;;16.30;99.90;;;;;;5056877;28;20104;-71
2023/09/29 01:01:50;;;;;;;6.78;0.73;;;16.20;99.90;;;;;;5074786;28;20030;-71
2023/09/29 01:04:16;;;;;;;10.05;1.23;;;16.30;99.90;;;;;;5074992;28;20086;-71
2023/09/29 01:06:41;;;;;;;4.38;1.00;;;16.30;99.90;;;;;;5074852;28;20032;-71
2023/09/29 01:09:07;;;;;;;11.13;1.30;;;16.30;99.90;;;;;;5074668;28;20035;-71
2023/09/29 01:11:43;;;;;;;6.03;1.05;;;16.30;99.90;;;;;;5056522;28;20021;-71
2023/09/29 01:14:11;;;;;;;11.00;1.00;;;16.30;99.90;;;;;;5074371;28;20070;-71
2023/09/29 01:16:41;;;;;;;2.75;0.47;;;16.30;99.90;;;;;;5074464;28;20074;-71
2023/09/29 01:19:13;;;;;;;9.43;0.90;;;16.30;99.90;;;;;;5056890;28;20023;-71
2023/09/29 01:21:45;;;;;;;9.85;0.85;;;16.30;99.90;;;;;;5056605;28;20115;-71
2023/09/29 01:24:11;;;;;;;8.88;1.25;;;16.30;99.90;;;;;;5075041;28;20025;-71
2023/09/29 01:26:36;;;;;;;4.93;0.77;;;16.30;99.90;;;;;;5074262;28;20491;-71
2023/09/29 01:29:03;;;;;;;5.00;1.05;;;16.40;99.90;;;;;;5074770;28;20020;-71
2023/09/29 01:31:28;;;;;;;9.10;0.75;;;16.40;99.90;;;;;;5074034;28;20035;-71
2023/09/29 01:33:54;;;;;;;5.88;1.10;;;16.40;99.90;;;;;;5074710;28;20376;-71
2023/09/29 01:36:20;;;;;;;6.32;0.55;;;16.50;99.90;;;;;;5074151;28;20447;-71
2023/09/29 01:38:46;;;;;;;10.73;1.30;;;16.50;99.90;;;;;;5075229;28;20027;-71
2023/09/29 01:41:13;;;;;;;4.82;0.88;;;16.50;99.90;;;;;;5074066;28;20025;-71
2023/09/29 01:43:39;;;;;;;8.30;1.27;;;16.50;99.90;;;;;;5074178;28;20009;-71
2023/09/29 01:46:07;;;;;;;5.68;0.63;;;16.50;99.90;;;;;;5074130;28;20381;-71
2023/09/29 01:48:33;;;;;;;8.27;1.02;;;16.50;99.90;;;;;;5074500;28;20464;-71
2023/09/29 01:51:02;;;;;;;7.20;0.93;;;16.50;99.90;;;;;;5074280;28;20070;-71
2023/09/29 01:53:30;;;;;;;;;;;16.50;99.90;;;;;;5057541;28;20047;-71
2023/09/29 01:55:56;;;;;;;12.75;1.48;;;16.50;99.90;;;;;;5073877;28;19913;-71
2023/09/29 01:58:22;;;;;;;11.50;0.93;;;16.40;99.90;;;;;;5055828;28;20394;-71
2023/09/29 02:00:48;;;;;;;7.13;1.00;;;16.50;99.90;;;;;;5073723;28;20494;-71
2023/09/29 02:03:15;;;;;;;7.68;0.60;;;16.40;99.90;;;;;;5073762;28;20028;-72
2023/09/29 02:05:41;;;;;;;5.28;0.70;;;16.40;99.90;;;;;;5073651;28;20024;-71
2023/09/29 02:08:08;;;;;;;9.38;0.95;;;16.30;99.90;;;;;;5074275;28;20024;-71
2023/09/29 02:10:36;;;;;;;11.80;1.15;;;16.30;99.90;;;;;;5074174;28;20028;-71
2023/09/29 02:13:04;;;;;;;12.13;1.15;;;16.40;99.90;;;;;;5073567;28;20435;-71
2023/09/29 02:15:33;;;;;;;10.93;0.93;;;16.30;99.90;;;;;;5073514;28;20012;-71
2023/09/29 02:18:09;;;;;;;7.22;1.05;;;16.40;99.90;;;;;;5074212;28;20017;-71
2023/09/29 02:20:36;;;;;;;6.80;1.08;;;16.40;99.90;;;;;;5074180;28;20023;-71
2023/09/29 02:23:04;;;;;;;5.32;1.00;;;16.40;99.90;;;;;;5073506;28;20028;-71
2023/09/29 02:25:30;;;;;;;11.80;1.20;;;16.40;99.90;;;;;;5073647;28;20024;-71
2023/09/29 02:27:57;;;;;;;6.35;1.20;;;16.40;99.90;;;;;;5073921;28;20028;-71
2023/09/29 02:30:24;;;;;;;10.13;1.25;;;16.40;99.90;;;;;;5073582;28;20048;-71
2023/09/29 02:32:52;;;;;;;7.18;0.85;;;16.40;99.90;;;;;;5073601;28;20094;-71
2023/09/29 02:35:18;;;;;;;9.48;0.63;;;16.40;99.90;;;;;;5073563;28;20029;-71
2023/09/29 02:37:44;;;;;;;7.43;1.25;;;16.40;99.90;;;;;;5073422;28;20031;-71
2023/09/29 02:40:13;;;;;;;7.85;1.27;;;16.40;99.90;;;;;;5073276;28;20510;-71
2023/09/29 02:42:39;;;;;;;10.63;1.25;;;16.40;99.90;;;;;;5076762;28;20055;-72
2023/09/29 02:45:06;;;;;;;6.88;0.85;;;16.40;99.90;;;;;;5077926;28;20495;-71
2023/09/29 02:47:32;;;;;;;4.55;0.63;;;16.40;99.90;;;;;;5077304;28;20082;-71
2023/09/29 02:49:58;;;;;;;6.28;0.75;;;16.40;99.90;;;;;;5077205;28;20021;-71
2023/09/29 02:52:25;;;;;;;8.13;1.23;;;16.40;99.90;;;;;;5077370;28;20025;-71
2023/09/29 02:54:50;;;;;;;20.67;1.58;;;16.50;99.90;;;;;;5077258;28;20107;-71
2023/09/29 02:57:17;;;;;;;9.05;0.98;;;16.50;99.90;;;;;;5077495;28;20099;-71
2023/09/29 02:59:44;;;;;;;26.60;1.73;;;16.50;99.90;;;;;;5076984;28;20028;-71
2023/09/29 03:02:10;;;;;;;12.43;1.30;;;16.60;99.90;;;;;;5077114;28;20020;-71
2023/09/29 03:04:36;;;;;;;4.03;0.80;;;16.60;99.90;;;;;;5077681;28;20368;-71
2023/09/29 03:07:02;;;;;;;9.63;0.65;;;16.60;99.90;;;;;;5077017;28;20025;-71
2023/09/29 03:09:29;;;;;;;7.88;0.30;;;16.70;99.90;;;;;;5077012;28;20034;-71
2023/09/29 03:11:54;;;;;;;5.10;0.98;;;16.70;99.90;;;;;;5076886;28;20017;-71
2023/09/29 03:14:21;;;;;;;6.55;0.75;;;16.80;99.90;;;;;;5076861;28;20086;-71
2023/09/29 03:16:46;;;;;;;9.18;0.52;;;16.70;99.90;;;;;;5077432;28;20044;-72
2023/09/29 03:19:12;;;;;;;8.55;0.77;;;16.80;99.90;;;;;;5077359;28;20443;-71
2023/09/29 03:21:38;;;;;;;9.07;1.08;;;16.80;99.90;;;;;;5076628;28;20073;-71
2023/09/29 03:24:04;;;;;;;8.73;0.77;;;;;;;;;;5076691;28;20464;-71
2023/09/29 03:26:31;;;;;;;10.18;1.75;;;16.80;99.90;;;;;;5077142;28;20054;-72
2023/09/29 03:28:57;;;;;;;6.88;1.05;;;16.80;99.90;;;;;;5076595;28;20056;-71
2023/09/29 03:31:23;;;;;;;4.97;0.85;;;16.80;99.90;;;;;;5076372;28;20434;-71
2023/09/29 03:33:49;;;;;;;11.32;0.82;;;16.80;99.90;;;;;;5076658;28;20096;-71
2023/09/29 03:36:14;;;;;;;5.13;0.77;;;16.80;99.90;;;;;;5076616;28;20103;-71
2023/09/29 03:38:43;;;;;;;8.13;0.95;;;16.90;99.90;;;;;;5077011;28;20086;-71
2023/09/29 03:41:10;;;;;;;7.72;0.90;;;16.80;99.90;;;;;;5076446;28;20162;-71
2023/09/29 03:43:36;;;;;;;7.55;0.57;;;16.80;99.90;;;;;;5076763;28;20044;-71
2023/09/29 03:46:01;;;;;;;5.10;0.70;;;16.70;99.90;;;;;;5076362;28;20097;-71
2023/09/29 03:48:28;;;;;;;8.82;1.48;;;16.60;99.90;;;;;;5076414;28;20021;-71
2023/09/29 03:50:54;;;;;;;5.40;0.63;;;16.60;99.90;;;;;;5076894;28;20028;-71
2023/09/29 03:53:21;;;;;;;8.20;0.80;;;16.50;99.90;;;;;;5074762;28;20020;-71
2023/09/29 03:55:46;;;;;;;9.30;1.63;;;16.50;99.90;;;;;;5076319;28;20507;-71
2023/09/29 03:58:14;;;;;;;7.20;0.57;;;16.40;99.90;;;;;;5076027;28;20052;-71
2023/09/29 04:00:40;;;;;;;6.13;1.05;;;16.30;99.90;;;;;;5058176;28;20024;-71
2023/09/29 04:03:06;;;;;;;5.97;0.63;;;16.30;99.90;;;;;;5076034;28;20055;-71
2023/09/29 04:05:32;;;;;;;3.10;0.63;;;16.30;99.90;;;;;;5075825;28;20017;-71
2023/09/29 04:07:57;;;;;;;5.03;0.43;;;16.30;99.90;;;;;;5075944;28;20543;-71
2023/09/29 04:10:23;;;;;;;6.30;1.10;;;16.20;99.90;;;;;;5075805;28;20107;-71
2023/09/29 04:12:49;;;;;;;17.08;1.48;;;16.20;99.90;;;;;;5075690;28;20077;-72
2023/09/29 04:15:16;;;;;;;8.43;1.75;;;16.20;99.90;;;;;;5075707;28;20162;-71
2023/09/29 04:17:42;;;;;;;13.32;1.65;;;16.20;99.90;;;;;;5075773;28;20491;-71
2023/09/29 04:20:09;;;;;;;3.35;1.00;;;16.20;99.90;;;;;;5058166;28;20013;-71
2023/09/29 04:22:35;;;;;;;6.20;0.98;;;16.20;99.90;;;;;;5075515;28;20155;-71
2023/09/29 04:25:01;;;;;;;10.68;1.23;;;16.20;99.90;;;;;;5076025;28;20027;-71
2023/09/29 04:27:27;;;;;;;6.57;1.05;;;16.20;99.90;;;;;;5075505;28;20025;-71
2023/09/29 04:29:52;;;;;;;5.03;0.98;;;16.20;99.90;;;;;;5075939;28;20107;-71
2023/09/29 04:32:18;;;;;;;8.93;1.05;;;16.20;99.90;;;;;;5076014;28;20060;-71
2023/09/29 04:34:44;;;;;;;9.27;1.33;;;16.20;99.90;;;;;;5075482;28;20025;-71
2023/09/29 04:37:10;;;;;;;4.38;0.70;;;16.20;99.90;;;;;;5057355;28;20024;-71
2023/09/29 04:39:35;;;;;;;3.35;0.43;;;16.20;99.90;;;;;;5075183;28;20016;-71
2023/09/29 04:42:03;;;;;;;4.25;1.73;;;16.20;99.90;;;;;;5075307;28;20043;-71
2023/09/29 04:44:29;;;;;;;2.88;0.60;;;16.30;99.90;;;;;;5075046;28;20434;-71
2023/09/29 04:46:54;;;;;;;5.75;0.77;;;16.30;99.90;;;;;;5075089;28;20070;-71
2023/09/29 04:49:20;;;;;;;3.97;0.60;;;16.30;99.90;;;;;;5074922;28;20391;-71
2023/09/29 04:51:46;;;;;;;4.40;1.10;;;16.30;99.90;;;;;;5074828;28;20054;-72
2023/09/29 04:54:11;;;;;;;4.63;1.05;;;16.40;99.90;;;;;;5056694;28;20503;-72
2023/09/29 04:56:37;;;;;;;2.22;0.50;;;16.30;99.90;;;;;;5075286;28;20025;-72
2023/09/29 04:59:02;;;;;;;4.75;0.77;;;16.30;99.90;;;;;;5074706;28;20029;-71
2023/09/29 05:01:28;;;;;;;7.55;0.93;;;16.40;99.90;;;;;;5074982;28;20031;-71
2023/09/29 05:03:53;;;;;;;2.88;0.70;;;16.30;99.90;;;;;;5074616;28;20102;-71
2023/09/29 05:06:22;;;;;;;5.88;0.85;;;16.40;99.90;;;;;;5074414;28;20546;-72
2023/09/29 05:08:47;;;;;;;3.08;0.93;;;16.40;99.90;;;;;;5074766;28;20107;-71
2023/09/29 05:11:24;;;;;;;2.08;0.70;;;16.40;99.90;;;;;;5074548;28;20048;-71
2023/09/29 05:13:50;;;;;;;10.73;1.75;;;16.30;99.90;;;;;;5074667;28;20369;-71
2023/09/29 05:16:16;;;;;;;2.75;0.60;;;16.30;99.90;;;;;;5074694;28;20085;-71
2023/09/29 05:18:43;;;;;;;6.63;0.68;;;16.40;99.90;;;;;;5074464;28;20021;-71
2023/09/29 05:21:09;;;;;;;5.03;0.80;;;16.40;99.90;;;;;;5074312;28;20024;-71
2023/09/29 05:23:35;;;;;;;3.97;0.77;;;16.30;99.90;;;;;;5074473;28;20040;-72
2023/09/29 05:26:04;;;;;;;3.05;0.88;;;16.40;99.90;;;;;;5074388;28;20063;-71
2023/09/29 05:28:30;;;;;;;;;;;16.40;99.90;;;;;;5075234;28;20012;-71
2023/09/29 05:30:56;;;;;;;3.58;0.50;;;16.40;99.90;;;;;;5074841;28;19904;-71
2023/09/29 05:33:21;;;;;;;2.85;0.28;;;16.50;99.90;;;;;;5074489;28;20392;-71
2023/09/29 05:35:47;;;;;;;4.00;0.82;;;16.50;99.90;;;;;;5056383;28;20095;-71
2023/09/29 05:38:13;;;;;;;4.47;0.40;;;16.50;99.90;;;;;;5073994;28;20537;-71
2023/09/29 05:40:38;;;;;;;1.23;0.20;;;16.50;99.90;;;;;;5074582;28;20048;-71
2023/09/29 05:43:09;;;;;;;3.67;0.43;;;16.60;99.90;;;;;;5074084;28;20036;-71
2023/09/29 05:45:37;;;;;;;1.75;0.35;;;16.60;99.90;;;;;;5056856;28;20078;-71
2023/09/29 05:48:03;;;;;;;1.50;0.50;;;16.60;99.90;;;;;;5056278;28;20039;-71
2023/09/29 05:50:29;;;;;;;4.80;0.80;;;16.60;99.90;;;;;;5073811;28;20032;-71
2023/09/29 05:52:56;;;;;;;3.20;0.85;;;16.60;99.90;;;;;;5073961;28;20388;-71
2023/09/29 05:55:22;;;;;;;4.57;0.80;;;16.60;99.90;;;;;;5073670;28;20078;-71
2023/09/29 05:57:49;;;;;;;4.38;0.55;;;16.70;99.90;;;;;;5073924;28;20016;-71
2023/09/29 06:00:15;;;;;;;2.97;0.45;;;16.70;99.90;;;;;;5074066;28;20016;-71
2023/09/29 06:02:41;;;;;;;6.85;1.27;;;16.70;99.90;;;;;;5074382;28;20031;-72
2023/09/29 06:05:07;;;;;;;3.53;0.88;;;16.70;99.90;;;;;;5073842;28;20032;-71
2023/09/29 06:07:33;;;;;;;4.53;0.32;;;16.80;99.90;;;;;;5073816;28;20020;-71
2023/09/29 06:09:58;;;;;;;2.35;0.30;;;16.80;99.90;;;;;;5073597;28;20032;-71
2023/09/29 06:12:24;;;;;;;2.67;0.43;;;16.80;99.90;;;;;;5073592;28;20029;-71
2023/09/29 06:14:50;;;;;;;5.53;0.38;;;16.90;99.90;;;;;;5073509;28;20024;-71
2023/09/29 06:17:15;;;;;;;6.40;1.23;;;16.90;99.90;;;;;;5072930;28;20028;-72
2023/09/29 06:19:43;;;;;;;2.38;0.20;;;17.00;99.90;;;;;;5073461;28;20024;-71
2023/09/29 06:22:09;;;;;;;0.40;0.20;;;17.10;99.90;;;;;;5074134;28;20388;-71
2023/09/29 06:24:34;;;;;;;4.88;0.30;;;17.10;99.90;;;;;;5073535;28;20028;-71
2023/09/29 06:27:00;;;;;;;3.90;0.40;;;17.20;99.90;;;;;;5073607;28;20032;-71
2023/09/29 06:29:26;;;;;;;6.20;0.17;;;17.20;99.90;;;;;;5073523;28;20036;-71
2023/09/29 06:31:53;;;;;;;0.75;0.10;;;17.30;99.90;;;;;;5073465;28;20439;-71
2023/09/29 06:34:19;;;;;;;2.97;0.30;;;17.30;99.90;;;;;;5073771;28;20520;-71
2023/09/29 06:36:44;;;;;;;2.58;0.98;;;17.40;99.90;;;;;;5073238;28;20048;-71
2023/09/29 06:39:12;;;;;;;2.55;0.30;;;18.00;99.90;;;;;;5055971;28;20112;-72
2023/09/29 06:41:38;;;;;;;2.22;0.20;;;17.50;99.90;;;;;;5073603;28;20033;-71
2023/09/29 06:44:05;;;;;;;1.60;0.10;;;17.50;99.90;;;;;;5073225;28;20024;-71
2023/09/29 06:46:30;;;;;;;1.55;0.10;;;17.50;99.90;;;;;;5073847;28;20021;-71
2023/09/29 06:48:56;;;;;;;1.58;0.28;;;17.50;99.90;;;;;;5073783;28;20388;-71
2023/09/29 06:51:21;;;;;;;3.28;0.43;;;17.50;99.90;;;;;;5073032;28;20021;-71
2023/09/29 06:53:47;;;;;;;2.78;0.40;;;17.60;99.90;;;;;;5073652;28;20033;-71
2023/09/29 06:56:12;;;;;;;2.53;0.30;;;17.50;99.90;;;;;;5072811;28;20450;-71
2023/09/29 06:58:38;;;;;;;2.15;0.13;;;17.60;99.90;;;;;;5073443;28;20376;-71
2023/09/29 07:01:03;;;;;;;2.63;0.30;;;17.60;99.90;;;;;;5073034;28;20051;-71
2023/09/29 07:03:33;;;;;;;1.98;0.20;;;17.70;99.90;;;;;;5072838;28;20094;-72
2023/09/29 07:06:00;;;;;;;6.50;0.73;;;17.80;99.90;;;;;;5054766;28;20025;-71
2023/09/29 07:08:25;;;;;;;2.35;0.20;;;17.90;99.90;;;;;;5072816;28;20063;-71
2023/09/29 07:10:51;;;;;;;1.92;0.38;;;17.90;99.90;;;;;;5072751;28;20053;-71
2023/09/29 07:13:17;;;;;;;2.55;0.28;;;18.00;99.90;;;;;;5054836;28;20025;-71
2023/09/29 07:15:45;;;;;;;2.00;0.30;;;18.10;99.90;;;;;;5072682;28;20365;-71
2023/09/29 07:18:12;;;;;;;7.70;0.82;;;18.20;99.90;;;;;;5072732;28;20511;-71
2023/09/29 07:20:38;;;;;;;2.85;0.43;;;18.30;99.90;;;;;;5073200;28;20017;-71
2023/09/29 07:23:04;;;;;;;3.60;0.30;;;18.40;99.90;;;;;;5073112;28;20120;-71
2023/09/29 07:25:30;;;;;;;1.27;0.20;;;18.60;99.90;;;;;;5072417;28;20048;-71
2023/09/29 07:27:56;;;;;;;1.30;0.30;;;18.60;99.90;;;;;;5074098;28;20060;-72
2023/09/29 07:30:22;;;;;;;4.55;0.63;;;18.70;99.90;;;;;;5076964;28;20103;-71
2023/09/29 07:32:51;;;;;;;4.78;0.10;;;18.80;99.90;;;;;;5076165;28;20055;-71
2023/09/29 07:35:16;;;;;;;3.42;0.22;;;19.20;99.90;;;;;;5076755;28;20102;-71
2023/09/29 07:37:42;;;;;;;3.08;0.03;;;18.90;99.90;;;;;;5076188;28;20055;-71
2023/09/29 07:40:09;;;;;;;2.53;0.20;;;18.80;99.90;;;;;;5076204;28;20021;-71
2023/09/29 07:42:35;;;;;;;1.83;0.47;;;18.90;99.90;;;;;;5076162;28;20048;-71
2023/09/29 07:45:01;;;;;;;2.25;0.10;;;18.90;99.90;;;;;;5076375;28;20055;-71
2023/09/29 07:47:26;;;;;;;1.95;0.30;;;19.00;99.90;;;;;;5076623;28;20480;-71
2023/09/29 07:49:52;;;;;;;3.45;0.60;;;18.90;99.90;;;;;;5076561;28;20056;-71
2023/09/29 07:52:18;;;;;;;3.50;0.38;;;18.90;99.90;;;;;;5076075;28;20467;-71
2023/09/29 07:54:43;;;;;;;1.52;0.20;;;18.90;99.90;;;;;;5075830;28;20025;-71
2023/09/29 07:57:09;;;;;;;2.28;0.20;;;18.90;99.90;;;;;;5075828;28;20445;-71
2023/09/29 07:59:34;;;;;;;1.80;0.20;;;18.90;99.90;;;;;;5075816;28;20017;-71
2023/09/29 08:02:00;;;;;;;4.43;0.47;;;18.90;99.90;;;;;;5075818;28;20046;-71
2023/09/29 08:04:26;;;;;;;2.83;0.50;;;18.90;99.90;;;;;;5076342;28;20025;-71
2023/09/29 08:06:51;;;;;;;2.58;0.40;;;19.00;99.90;;;;;;5076082;28;20029;-71
2023/09/29 08:09:17;;;;;;;2.15;0.20;;;19.00;99.90;;;;;;5075639;28;20059;-71
2023/09/29 08:11:43;;;;;;;3.00;0.20;;;19.00;99.90;;;;;;5075432;28;20029;-71
2023/09/29 08:14:09;;;;;;;3.00;0.30;;;19.00;99.90;;;;;;5075407;28;20021;-71
2023/09/29 08:16:36;;;;;;;1.05;0.50;;;19.00;99.90;;;;;;5075485;28;20016;-71
2023/09/29 08:19:01;;;;;;;2.70;0.77;;;19.10;99.90;;;;;;5075473;28;20020;-71
2023/09/29 08:21:27;;;;;;;4.80;0.60;;;19.20;99.90;;;;;;5075455;28;20098;-72
2023/09/29 08:23:53;;;;;;;1.98;0.55;;;19.20;99.90;;;;;;5075576;28;20013;-72
2023/09/29 08:26:18;;;;;;;6.65;0.88;;;19.20;99.90;;;;;;5075286;28;20071;-71
2023/09/29 08:28:44;;;;;;;4.00;0.60;;;19.40;99.90;;;;;;5075270;28;20448;-71
2023/09/29 08:31:14;;;;;;;2.38;0.30;;;19.40;99.90;;;;;;5075172;28;20041;-71
2023/09/29 08:33:39;;;;;;;6.28;0.47;;;19.50;99.90;;;;;;5076092;28;20017;-71
2023/09/29 08:36:05;;;;;;;6.22;0.80;;;19.50;99.90;;;;;;5076123;28;20047;-71
2023/09/29 08:38:31;;;;;;;3.60;0.25;;;19.60;99.90;;;;;;5075878;28;20016;-71
2023/09/29 08:40:59;;;;;;;2.90;0.55;;;19.60;99.90;;;;;;5074386;28;20029;-71
2023/09/29 08:43:28;;;;;;;2.75;0.68;;;19.80;99.90;;;;;;5075611;28;20032;-71
2023/09/29 08:46:00;;;;;;;3.95;0.50;;;19.90;99.90;;;;;;5056899;28;20024;-71
2023/09/29 08:48:34;;;;;;;2.20;0.20;;;20.10;99.90;;;;;;5074843;28;20029;-71
2023/09/29 08:51:01;;;;;;;5.32;0.10;;;20.30;99.90;;;;;;5075426;28;20048;-71
2023/09/29 08:53:28;;;;;;;5.22;0.52;;;20.30;99.90;;;;;;5074650;28;20067;-71
2023/09/29 08:55:55;;;;;;;5.22;0.80;;;20.40;99.90;;;;;;5074746;28;20024;-71
2023/09/29 08:58:23;;;;;;;2.38;0.57;;;20.30;99.90;;;;;;5074775;28;20060;-71
2023/09/29 09:00:49;;;;;;;1.67;0.40;;;20.40;99.90;;;;;;5074582;28;20078;-71
2023/09/29 09:03:14;;;;;;;0.68;0.20;;;20.50;99.90;;;;;;5074644;28;20099;-71
2023/09/29 09:05:40;;;;;;;1.52;0.20;;;20.40;99.90;;;;;;5074506;28;20546;-71
2023/09/29 09:08:06;;;;;;;5.35;0.50;;;20.50;99.90;;;;;;5074401;28;20027;-71
2023/09/29 09:10:35;;;;;;;2.65;0.73;;;20.60;99.90;;;;;;5074533;28;20392;-71
2023/09/29 09:13:02;;;;;;;1.83;0.57;;;20.60;99.90;;;;;;5074311;28;20391;-71
2023/09/29 09:15:28;;;;;;;5.85;0.40;;;20.60;99.90;;;;;;5074330;28;20530;-71
2023/09/29 09:17:56;;;;;;;2.80;0.30;;;20.70;99.90;;;;;;5074366;28;20023;-71
2023/09/29 09:20:23;;;;;;;5.38;0.30;;;20.80;99.90;;;;;;5074246;28;20107;-71
2023/09/29 09:23:03;;;;;;;2.58;0.35;;;20.80;99.90;;;;;;5074776;28;20519;-71
2023/09/29 09:25:38;;;;;;;3.10;0.30;;;20.80;99.90;;;;;;5074127;28;20446;-71
2023/09/29 09:28:05;;;;;;;2.65;0.40;;;20.90;99.90;;;;;;5074192;28;20032;-71
2023/09/29 09:30:37;;;;;;;4.00;0.60;;;21.00;99.90;;;;;;5074092;28;20475;-71
2023/09/29 09:33:06;;;;;;;1.88;0.15;;;21.00;99.90;;;;;;5074004;28;20025;-71
2023/09/29 09:35:36;;;;;;;2.60;0.10;;;21.10;99.90;;;;;;5073922;28;20021;-71
2023/09/29 09:38:02;;;;;;;1.92;0.10;;;21.20;99.90;;;;;;5073997;28;20020;-71
2023/09/29 09:40:28;;;;;;;2.47;0.22;;;21.30;99.90;;;;;;5074000;28;20032;-71
2023/09/29 09:42:54;;;;;;;1.85;0.30;;;21.20;99.90;;;;;;5073768;28;20025;-71
2023/09/29 09:45:24;;;;;;;1.15;0.35;;;21.20;99.90;;;;;;5073742;28;20365;-71
2023/09/29 09:47:55;;;;;;;2.20;0.60;;;21.10;99.90;;;;;;5073739;28;20022;-71
2023/09/29 09:50:21;;;;;;;3.13;0.20;;;21.10;99.90;;;;;;5073780;28;20020;-71
2023/09/29 09:52:51;;;;;;;1.50;0.10;;;21.00;99.90;;;;;;5073607;28;20037;-71
2023/09/29 09:55:18;;;;;;;3.10;0.40;;;21.00;99.90;;;;;;5073601;28;20060;-71
2023/09/29 09:57:45;;;;;;;2.30;0.25;;;20.90;99.90;;;;;;5074117;28;20117;-71
2023/09/29 10:00:12;;;;;;;1.38;0.20;;;20.90;99.90;;;;;;5073593;28;20016;-71
2023/09/29 10:02:43;;;;;;;2.50;0.20;;;20.80;99.90;;;;;;5073407;28;20025;-71
2023/09/29 10:05:22;;;;;;;2.40;0.22;;;20.80;99.90;;;;;;5073977;28;20021;-71
2023/09/29 10:07:55;;;;;;;1.80;0.10;;;20.70;99.90;;;;;;5055590;28;20048;-71
2023/09/29 10:10:37;;;;;;;1.55;0.15;;;20.60;99.90;;;;;;5074162;28;20032;-71
2023/09/29 10:13:06;;;;;;;0.75;0.20;;;20.50;99.90;;;;;;5055503;28;20547;-71
2023/09/29 10:15:32;;;;;;;1.70;0.20;;;20.50;99.90;;;;;;5073315;28;20042;-71
2023/09/29 10:18:21;;;;;;;0.75;0.00;;;20.50;99.90;;;;;;5073368;28;20434;-71
2023/09/29 10:20:58;;;;;;;0.90;0.10;;;20.40;99.90;;;;;;5072882;28;20032;-71
2023/09/29 10:23:27;;;;;;;2.85;0.10;;;20.40;99.90;;;;;;5073808;28;20024;-71
2023/09/29 10:26:00;;;;;;;0.90;0.22;;;20.50;99.90;;;;;;5073403;28;20118;-72
2023/09/29 10:28:36;;;;;;;2.67;0.15;;;20.50;99.90;;;;;;5073155;28;20031;-71
2023/09/29 10:31:10;;;;;;;3.15;0.20;;;20.40;99.90;;;;;;5073216;28;20036;-71
2023/09/29 10:33:52;;;;;;;2.17;0.30;;;20.40;99.90;;;;;;5073113;28;20539;-71
2023/09/29 10:36:20;;;;;;;6.85;0.32;;;20.40;99.90;;;;;;5073655;28;20027;-71
2023/09/29 10:38:47;;;;;;;1.25;0.10;;;20.40;99.90;;;;;;5073683;28;20031;-71
2023/09/29 10:41:14;;;;;;;0.75;0.20;;;20.40;99.90;;;;;;5073438;28;20074;-71
2023/09/29 10:43:48;;;;;;;4.20;0.43;;;20.40;99.90;;;;;;5073085;28;20021;-71
2023/09/29 10:46:20;;;;;;;1.70;0.10;;;20.40;99.90;;;;;;5073576;28;20027;-71
2023/09/29 10:48:51;;;;;;;1.70;0.65;;;20.30;99.90;;;;;;5073179;28;20035;-71
2023/09/29 10:51:25;;;;;;;1.33;0.30;;;20.30;99.90;;;;;;5072997;28;20061;-71
2023/09/29 10:53:51;;;;;;;5.28;0.35;;;20.30;99.90;;;;;;5073636;28;20112;-71
2023/09/29 10:56:25;;;;;;;4.97;0.22;;;20.30;99.90;;;;;;5054830;28;20389;-71
2023/09/29 10:58:52;;;;;;;3.22;0.73;;;20.20;99.90;;;;;;5055006;28;20029;-71
2023/09/29 11:01:20;;;;;;;2.00;0.17;;;20.20;99.90;;;;;;5072853;28;20019;-71
2023/09/29 11:03:46;;;;;;;2.10;0.28;;;20.10;99.90;;;;;;5057729;28;20017;-71
2023/09/29 11:06:18;;;;;;;4.72;0.70;;;19.90;99.90;;;;;;5076893;28;20101;-71
2023/09/29 11:08:55;;;;;;;2.38;0.70;;;19.70;99.90;;;;;;5077386;28;20017;-71
2023/09/29 11:11:21;;;;;;;1.23;0.38;;;19.60;99.90;;;;;;5076801;28;20095;-71
2023/09/29 11:13:59;;;;;;;1.90;0.75;;;19.50;99.90;;;;;;5077334;28;20027;-71
2023/09/29 11:16:27;;;;;;;0.82;0.20;;;19.30;99.90;;;;;;5076723;28;20111;-71
2023/09/29 11:18:56;;;;;;;0.45;0.20;;;19.20;99.90;;;;;;5076578;28;20016;-71
2023/09/29 11:21:35;;;;;;;0.75;0.00;;;19.20;99.90;;;;;;5076875;28;20024;-71
2023/09/29 11:24:11;;;;;;;0.80;0.20;;;19.20;99.90;;;;;;5058805;28;20020;-71
2023/09/29 11:26:48;;;;;;;0.77;0.10;;;19.20;99.90;;;;;;5076502;28;20081;-71
2023/09/29 11:29:25;;;;;;;3.92;0.17;;;19.20;99.90;;;;;;5058483;28;20013;-71
2023/09/29 11:31:53;;;;;;;2.25;0.00;;;19.20;99.90;;;;;;5076772;28;20029;-71
2023/09/29 11:34:19;;;;;;;1.20;0.08;;;19.10;99.90;;;;;;5076756;28;20035;-71
2023/09/29 11:36:44;;;;;;;3.15;0.00;;;19.10;99.90;;;;;;5058631;28;20016;-71
2023/09/29 11:39:17;;;;;;;1.23;0.20;;;19.10;99.90;;;;;;5076189;28;20029;-71
2023/09/29 11:41:43;;;;;;;4.15;0.10;;;19.00;99.90;;;;;;5058306;28;20483;-71
2023/09/29 11:44:08;;;;;;;6.72;0.65;;;18.90;99.90;;;;;;5076064;28;20028;-71
2023/09/29 11:46:35;;;;;;;2.90;0.38;;;18.90;99.90;;;;;;5076099;28;20028;-71
2023/09/29 11:49:01;;;;;;;2.13;0.00;;;18.80;99.90;;;;;;5058083;28;20027;-71
2023/09/29 11:51:27;;;;;;;2.72;0.10;;;18.80;99.90;;;;;;5076021;28;20036;-71
2023/09/29 11:53:52;;;;;;;1.80;0.00;;;18.70;99.90;;;;;;5075969;28;20027;-71
2023/09/29 11:56:18;;;;;;;2.97;0.35;;;18.60;99.90;;;;;;5075819;28;20032;-71
2023/09/29 11:58:44;;;;;;;4.15;0.38;;;18.50;99.90;;;;;;5075894;28;20480;-71
2023/09/29 12:01:10;;;;;;;2.22;0.70;;;18.50;99.90;;;;;;5075730;28;20031;-71
2023/09/29 12:03:36;;;;;;;2.28;0.10;;;18.50;99.90;;;;;;5075800;28;20020;-71
2023/09/29 12:06:02;;;;;;;3.13;0.00;;;18.50;99.90;;;;;;5075667;28;20523;-71
2023/09/29 12:08:29;;;;;;;1.52;0.20;;;18.60;99.90;;;;;;5057708;28;20032;-71
2023/09/29 12:10:55;;;;;;;2.25;0.00;;;18.70;99.90;;;;;;5075719;28;20103;-71
2023/09/29 12:13:20;;;;;;;3.40;0.17;;;18.70;99.90;;;;;;5075420;28;20112;-71
2023/09/29 12:15:46;;;;;;;0.98;0.10;;;18.70;99.90;;;;;;5074526;28;20023;-71
2023/09/29 12:18:13;;;;;;;1.75;0.13;;;18.70;99.90;;;;;;5075521;28;20024;-71
2023/09/29 12:20:39;;;;;;;2.25;0.08;;;18.70;99.90;;;;;;5075448;28;20082;-71
2023/09/29 12:23:06;;;;;;;1.15;0.10;;;18.60;99.90;;;;;;5075030;28;20051;-71
2023/09/29 12:25:32;;;;;;;0.57;0.00;;;18.70;99.90;;;;;;5074048;28;20044;-72
2023/09/29 12:27:58;;;;;;;1.20;0.00;;;18.60;99.90;;;;;;5055227;28;20020;-71
2023/09/29 12:30:25;;;;;;;1.50;0.00;;;18.70;99.90;;;;;;5074619;28;20032;-75
2023/09/29 12:32:50;;;;;;;2.83;0.20;;;18.70;99.90;;;;;;5075068;28;20028;-75
2023/09/29 12:35:17;;;;;;;2.10;0.10;;;18.70;99.90;;;;;;5075047;28;20070;-75
2023/09/29 12:37:43;;;;;;;3.90;0.20;;;18.80;99.90;;;;;;5075022;28;20031;-75
2023/09/29 12:40:14;;;;;;;3.65;0.57;;;18.90;99.90;;;;;;5075062;28;20471;-75
2023/09/29 12:42:48;;;;;;;1.83;0.28;;;19.10;99.90;;;;;;5056885;28;20021;-75
2023/09/29 12:45:15;;;;;;;0.68;0.00;;;19.40;99.90;;;;;;5074871;28;20016;-75
2023/09/29 12:47:41;;;;;;;1.02;0.00;;;20.30;99.90;;;;;;5074731;28;20476;-75
2023/09/29 12:50:08;;;;;;;5.78;0.08;;;20.30;99.90;;;;;;5074903;28;20016;-75